Time;durP1;ratioP1;P1;durP2;ratioP2;P2;SDS_P1;SDS_P2;PMS_P1;PMS_P2;Temp;Humidity;BMP_temperature;BMP_pressure;BME280_temperature;BME280_humidity;BME280_pressure;Samples;Min_cycle;Max_cycle;Signal;HPM_P1;HPM_P2
2023/02/10 00:00:10;;;;;;;;;;;;;;;16.57;33.78;103122.66;4969169;28;909;-56
2023/02/10 00:02:36;;;;;;;;;;;;;;;15.88;35.24;103127.63;4977268;28;1206;-55
2023/02/10 00:05:01;;;;;;;;;;;;;;;15.97;35.31;103131.00;4980878;28;1978;-53
2023/02/10 00:07:27;;;;;;;;;;;;;;;17.39;32.58;103124.81;4967603;28;1165;-55
2023/02/10 00:09:52;;;;;;;;;;;;;;;16.74;33.63;103139.50;4980920;28;1593;-54
2023/02/10 00:12:18;;;;;;;;;;;;;;;15.96;34.89;103128.47;4980406;28;994;-57
2023/02/10 00:14:43;;;;;;;;;;;;;;;15.60;35.96;103133.28;4981050;28;1003;-53
2023/02/10 00:17:09;;;;;;;;;;;;;;;15.59;35.70;103131.59;4980774;28;1112;-56
2023/02/10 00:19:35;;;;;;;;;;;;;;;17.12;33.14;103129.63;4980194;28;1071;-53
2023/02/10 00:22:02;;;;;;;;;;;;;;;17.03;33.07;103126.28;4980405;28;1089;-54
2023/02/10 00:24:27;;;;;;;;;;;;;;;16.15;34.66;103118.53;4995276;28;846;-53
2023/02/10 00:26:53;;;;;;;;;;;;;;;15.67;35.77;103123.16;4982387;28;1983;-54
2023/02/10 00:29:18;;;;;;;;;;;;;;;15.85;35.34;103124.44;4969508;28;1110;-54
2023/02/10 00:31:44;;;;;;;;;;;;;;;17.29;32.65;103116.19;4978634;28;1168;-58
2023/02/10 00:34:14;;;;;;;;;;;;;;;16.75;33.58;103118.38;4995035;28;1135;-53
2023/02/10 00:36:40;;;;;;;;;;;;;;;15.98;34.82;103097.00;4975209;28;1053;-57
2023/02/10 00:39:05;;;;;;;;;;;;;;;15.59;35.88;103100.59;4972329;28;1066;-57
2023/02/10 00:41:33;;;;;;;;;;;;;;;16.14;34.74;103101.22;4979804;28;1128;-57
2023/02/10 00:43:58;;;;;;;;;;;;;;;17.39;32.44;103102.81;4969010;28;1217;-55
2023/02/10 00:46:24;;;;;;;;;;;;;;;16.30;34.32;103088.94;4978134;28;1973;-55
2023/02/10 00:48:49;;;;;;;;;;;;;;;15.73;35.44;103094.06;4968840;28;1129;-53
2023/02/10 00:51:15;;;;;;;;;;;;;;;15.73;35.41;103094.88;4978311;28;1018;-54
2023/02/10 00:53:41;;;;;;;;;;;;;;;17.25;32.64;103096.56;4968385;28;1134;-53
2023/02/10 00:56:06;;;;;;;;;;;;;;;16.97;33.14;103099.69;4973291;28;1188;-52
2023/02/10 00:58:33;;;;;;;;;;;;;;;16.05;34.99;103097.84;4971725;28;1031;-52
2023/02/10 01:00:59;;;;;;;;;;;;;;;15.64;35.60;103106.28;4966904;28;1097;-55
2023/02/10 01:03:24;;;;;;;;;;;;;;;16.19;34.92;103100.59;4979692;28;1069;-53
2023/02/10 01:05:49;;;;;;;;;;;;;;;17.42;32.35;103096.88;4965365;28;2324;-54
2023/02/10 01:08:15;;;;;;;;;;;;;;;16.71;33.35;103101.47;4967879;28;1146;-54
2023/02/10 01:10:40;;;;;;;;;;;;;;;15.99;35.04;103095.97;4973430;28;1129;-54
2023/02/10 01:13:06;;;;;;;;;;;;;;;15.57;35.90;103098.91;4971821;28;1042;-55
2023/02/10 01:15:31;;;;;;;;;;;;;;;16.35;34.54;103097.34;4966306;28;1165;-55
2023/02/10 01:17:57;;;;;;;;;;;;;;;17.47;32.16;103096.19;4979206;28;1073;-52
2023/02/10 01:20:22;;;;;;;;;;;;;;;16.32;34.29;103084.06;4966856;28;1142;-57
2023/02/10 01:22:48;;;;;;;;;;;;;;;15.76;35.34;103085.38;4967626;28;1130;-58
2023/02/10 01:25:14;;;;;;;;;;;;;;;16.42;34.30;103087.22;4955987;29;1903;-51
2023/02/10 01:27:39;;;;;;;;;;;;;;;17.54;32.07;103082.41;4959794;29;842;-54
2023/02/10 01:30:07;;;;;;;;;;;;;;;16.50;34.05;103077.88;4961192;28;1198;-53
2023/02/10 01:32:32;;;;;;;;;;;;;;;15.90;35.28;103091.75;4967461;28;1192;-53
2023/02/10 01:34:58;;;;;;;;;;;;;;;15.56;35.86;103088.16;4978066;28;1141;-50
2023/02/10 01:37:23;;;;;;;;;;;;;;;16.80;33.49;103088.31;4979170;28;1069;-51
2023/02/10 01:39:48;;;;;;;;;;;;;;;16.89;33.31;103081.53;4966647;28;1216;-51
2023/02/10 01:42:14;;;;;;;;;;;;;;;16.02;34.97;103081.81;4979450;28;1128;-54
2023/02/10 01:44:39;;;;;;;;;;;;;;;15.57;35.56;103089.81;4973232;28;1196;-49
2023/02/10 01:47:06;;;;;;;;;;;;;;;17.09;33.13;103081.41;4971330;28;1899;-54
2023/02/10 01:49:33;;;;;;;;;;;;;;;17.00;33.16;103091.00;4961356;28;1613;-56
2023/02/10 01:51:59;;;;;;;;;;;;;;;16.07;34.98;103090.25;4994144;28;1045;-55
2023/02/10 01:54:30;;;;;;;;;;;;;;;15.60;35.57;103092.16;4959819;28;1511;-51
2023/02/10 01:56:55;;;;;;;;;;;;;;;16.66;33.76;103087.56;4979087;28;875;-53
2023/02/10 01:59:21;;;;;;;;;;;;;;;17.14;32.88;103083.53;4975657;28;1129;-49
2023/02/10 02:01:47;;;;;;;;;;;;;;;16.07;34.92;103081.16;4979018;28;1045;-51
2023/02/10 02:04:12;;;;;;;;;;;;;;;15.63;35.68;103078.00;4948647;28;1645;-56
2023/02/10 02:06:38;;;;;;;;;;;;;;;16.15;34.80;103074.63;4978240;28;1978;-55
2023/02/10 02:09:04;;;;;;;;;;;;;;;17.39;32.65;103078.06;4965793;28;1237;-50
2023/02/10 02:11:36;;;;;;;;;;;;;;;16.76;33.29;103071.44;4978178;28;1041;-50
2023/02/10 02:14:09;;;;;;;;;;;;;;;15.94;35.24;103079.28;4972030;28;1143;-53
2023/02/10 02:16:37;;;;;;;;;;;;;;;15.50;35.73;103053.31;4971775;28;1118;-50
2023/02/10 02:19:17;;;;;;;;;;;;;;;16.43;34.14;103058.69;4936685;28;1154;-49
2023/02/10 02:21:55;;;;;;;;;;;;;;;17.56;32.14;103058.28;4992774;28;1012;-52
2023/02/10 02:24:39;;;;;;;;;;;;;;;16.33;34.11;103061.03;4978048;28;902;-56
2023/02/10 02:27:05;;;;;;;;;;;;;;;15.73;35.55;103067.44;4947519;28;1911;-55
2023/02/10 02:29:57;;;;;;;;;;;;;;;15.51;36.02;103063.25;4965086;28;1363;-57
2023/02/10 02:32:25;;;;;;;;;;;;;;;17.27;32.66;103061.44;4941597;28;1490;-55
2023/02/10 02:35:02;;;;;;;;;;;;;;;16.30;34.50;103060.63;4964182;28;1633;-52
2023/02/10 02:37:34;;;;;;;;;;;;;;;15.66;35.72;103066.63;4977723;28;924;-55
2023/02/10 02:40:01;;;;;;;;;;;;;;;16.23;34.81;103066.16;4992856;28;1225;-53
2023/02/10 02:42:28;;;;;;;;;;;;;;;17.45;32.46;103057.09;4980206;28;1294;-54
2023/02/10 02:44:54;;;;;;;;;;;;;;;17.02;33.18;103057.81;4948115;28;1468;-52
2023/02/10 02:47:38;;;;;;;;;;;;;;;16.16;34.43;103060.69;4960190;28;1907;-55
2023/02/10 02:50:07;;;;;;;;;;;;;;;15.66;35.69;103054.81;4950080;28;1115;-55
2023/02/10 02:52:44;;;;;;;;;;;;;;;15.35;36.14;103050.81;4977675;28;998;-55
2023/02/10 02:55:12;;;;;;;;;;;;;;;16.96;33.24;103061.41;4960551;28;1366;-52
2023/02/10 02:57:44;;;;;;;;;;;;;;;17.07;32.78;103067.06;4971734;28;1041;-56
2023/02/10 03:00:10;;;;;;;;;;;;;;;16.07;34.63;103068.31;4969259;28;1049;-55
2023/02/10 03:02:35;;;;;;;;;;;;;;;15.64;35.75;103056.91;4979826;28;1157;-53
2023/02/10 03:05:00;;;;;;;;;;;;;;;16.83;33.41;103065.06;4966397;28;1922;-55
2023/02/10 03:07:26;;;;;;;;;;;;;;;17.37;32.58;103047.19;4974576;28;1335;-57
2023/02/10 03:09:51;;;;;;;;;;;;;;;16.24;34.57;103049.47;4976446;28;1384;-53
2023/02/10 03:12:17;;;;;;;;;;;;;;;15.70;35.37;103045.09;4991717;28;1073;-56
2023/02/10 03:14:42;;;;;;;;;;;;;;;15.59;35.76;103049.31;4977672;28;1069;-55
2023/02/10 03:17:08;;;;;;;;;;;;;;;17.13;33.10;103048.03;4977444;28;1014;-55
2023/02/10 03:19:33;;;;;;;;;;;;;;;16.54;34.11;103039.84;4976852;28;1268;-56
2023/02/10 03:21:58;;;;;;;;;;;;;;;15.82;35.20;103042.56;4964341;28;1216;-53
2023/02/10 03:24:24;;;;;;;;;;;;;;;15.66;35.79;103041.09;4977506;28;1053;-55
2023/02/10 03:26:49;;;;;;;;;;;;;;;17.14;32.85;103036.78;4968287;28;1903;-56
2023/02/10 03:29:15;;;;;;;;;;;;;;;16.74;33.32;103029.59;4977226;28;1116;-59
2023/02/10 03:31:40;;;;;;;;;;;;;;;16.00;35.05;103033.69;4964150;28;1244;-57
2023/02/10 03:34:06;;;;;;;;;;;;;;;15.53;35.83;103022.75;4967074;28;1213;-56
2023/02/10 03:36:33;;;;;;;;;;;;;;;16.92;33.23;103025.31;4970237;28;1174;-55
2023/02/10 03:38:59;;;;;;;;;;;;;;;17.23;32.48;103020.88;4968829;28;1141;-54
2023/02/10 03:41:24;;;;;;;;;;;;;;;16.20;34.51;103030.88;4976500;28;1100;-55
2023/02/10 03:43:50;;;;;;;;;;;;;;;15.65;35.64;103015.56;4966790;28;1232;-52
2023/02/10 03:46:15;;;;;;;;;;;;;;;16.20;34.74;103018.00;4974535;28;1898;-49
2023/02/10 03:48:41;;;;;;;;;;;;;;;17.47;32.26;103016.44;4976778;28;1070;-57
2023/02/10 03:51:06;;;;;;;;;;;;;;;16.50;33.78;103016.63;4972877;28;1100;-58
2023/02/10 03:53:32;;;;;;;;;;;;;;;15.88;35.03;103008.81;4957972;28;1179;-55
2023/02/10 03:55:57;;;;;;;;;;;;;;;15.77;35.36;103002.03;4974637;28;1186;-56
2023/02/10 03:58:23;;;;;;;;;;;;;;;17.26;32.66;102998.41;4966484;28;1193;-56
2023/02/10 04:00:48;;;;;;;;;;;;;;;16.55;33.89;102997.56;4970238;28;1038;-52
2023/02/10 04:03:14;;;;;;;;;;;;;;;15.91;35.03;103000.16;4967881;28;1070;-57
2023/02/10 04:05:39;;;;;;;;;;;;;;;15.50;35.73;103004.81;4972809;28;1894;-56
2023/02/10 04:08:05;;;;;;;;;;;;;;;16.16;34.59;103002.16;4967647;28;1061;-56
2023/02/10 04:10:30;;;;;;;;;;;;;;;17.41;32.28;102996.16;4985802;28;1017;-56
2023/02/10 04:12:55;;;;;;;;;;;;;;;16.67;33.41;102998.56;4967231;28;1074;-57
2023/02/10 04:15:21;;;;;;;;;;;;;;;15.92;34.77;102990.84;4960945;28;1118;-55
2023/02/10 04:17:46;;;;;;;;;;;;;;;15.52;35.70;102999.13;4968059;28;1169;-53
2023/02/10 04:20:12;;;;;;;;;;;;;;;16.32;34.27;102987.97;4972536;28;1054;-50
2023/02/10 04:22:37;;;;;;;;;;;;;;;17.44;32.39;102995.72;4963522;28;1141;-54
2023/02/10 04:25:03;;;;;;;;;;;;;;;16.51;33.72;103002.69;4976422;28;2004;-55
2023/02/10 04:27:28;;;;;;;;;;;;;;;15.88;34.94;102995.94;4976371;28;1101;-50
2023/02/10 04:29:54;;;;;;;;;;;;;;;15.47;35.84;102988.78;4976696;28;1085;-53
2023/02/10 04:32:20;;;;;;;;;;;;;;;16.93;33.07;102997.59;4976351;28;1073;-57
2023/02/10 04:34:46;;;;;;;;;;;;;;;16.95;32.95;102996.53;4976616;28;1078;-55
2023/02/10 04:37:11;;;;;;;;;;;;;;;15.96;34.90;102994.84;4963302;28;1166;-54
2023/02/10 04:39:37;;;;;;;;;;;;;;;15.57;35.58;102999.31;4976941;28;1006;-56
2023/02/10 04:42:02;;;;;;;;;;;;;;;16.85;33.49;103005.25;4975532;28;1045;-54
2023/02/10 04:44:28;;;;;;;;;;;;;;;17.38;32.21;102996.63;4965423;28;1445;-56
2023/02/10 04:46:53;;;;;;;;;;;;;;;16.19;34.62;103015.50;4965993;28;1914;-50
2023/02/10 04:49:18;;;;;;;;;;;;;;;15.70;35.26;103014.94;4971486;28;1101;-55
2023/02/10 04:51:44;;;;;;;;;;;;;;;16.80;33.52;103016.88;4969959;28;1054;-50
2023/02/10 04:54:09;;;;;;;;;;;;;;;17.30;32.62;103016.16;4975596;28;1078;-52
2023/02/10 04:56:35;;;;;;;;;;;;;;;16.23;34.38;103006.59;4970907;28;1097;-55
2023/02/10 04:59:00;;;;;;;;;;;;;;;15.71;35.24;103003.75;4967731;28;1314;-56
2023/02/10 05:01:25;;;;;;;;;;;;;;;15.90;34.85;103017.66;4970603;28;1098;-48
2023/02/10 05:03:51;;;;;;;;;;;;;;;17.31;32.45;103008.75;4966886;28;1217;-49
2023/02/10 05:06:16;;;;;;;;;;;;;;;16.87;33.04;103003.09;4963011;28;1915;-52
2023/02/10 05:08:42;;;;;;;;;;;;;;;16.05;34.37;103007.28;4966316;28;1058;-52
2023/02/10 05:11:08;;;;;;;;;;;;;;;15.67;35.31;103010.72;4970963;28;1149;-51
2023/02/10 05:13:33;;;;;;;;;;;;;;;16.58;33.37;102999.91;4972777;28;984;-54
2023/02/10 05:15:59;;;;;;;;;;;;;;;17.65;31.39;102995.53;4969217;28;1038;-57
2023/02/10 05:18:24;;;;;;;;;;;;;;;16.73;32.88;103000.47;4966430;28;1137;-52
2023/02/10 05:20:50;;;;;;;;;;;;;;;16.04;34.04;103002.84;4979260;28;1090;-56
2023/02/10 05:23:15;;;;;;;;;;;;;;;15.68;34.71;103001.44;4977304;28;1125;-55
2023/02/10 05:25:40;;;;;;;;;;;;;;;16.22;33.83;102998.59;4968284;28;1906;-54
2023/02/10 05:28:06;;;;;;;;;;;;;;;17.42;31.94;103005.28;4978938;28;876;-51
2023/02/10 05:30:32;;;;;;;;;;;;;;;16.99;32.28;103004.13;4979391;28;1140;-54
2023/02/10 05:32:57;;;;;;;;;;;;;;;16.15;33.93;103003.25;4967406;28;1200;-53
2023/02/10 05:35:23;;;;;;;;;;;;;;;15.68;34.72;103004.19;4961951;28;1494;-53
2023/02/10 05:37:48;;;;;;;;;;;;;;;16.94;32.68;103001.19;4963497;28;2024;-55
2023/02/10 05:40:13;;;;;;;;;;;;;;;17.26;31.91;103009.41;4969807;28;2191;-53
2023/02/10 05:42:39;;;;;;;;;;;;;;;16.19;34.00;103007.25;4966162;28;1877;-56
2023/02/10 05:45:04;;;;;;;;;;;;;;;15.72;34.97;103010.94;4964597;28;2236;-49
2023/02/10 05:47:30;;;;;;;;;;;;;;;15.63;34.91;103008.63;4959922;28;1973;-54
2023/02/10 05:49:55;;;;;;;;;;;;;;;17.19;32.36;103014.13;4964110;28;1975;-57
2023/02/10 05:52:21;;;;;;;;;;;;;;;16.91;32.61;103013.47;4973535;28;2134;-54
2023/02/10 05:54:46;;;;;;;;;;;;;;;16.08;33.91;103015.06;4977259;28;1126;-54
2023/02/10 05:57:11;;;;;;;;;;;;;;;15.61;35.00;103017.03;4978525;28;1049;-54
2023/02/10 05:59:37;;;;;;;;;;;;;;;16.35;33.68;103023.22;4975272;28;1283;-52
2023/02/10 06:02:02;;;;;;;;;;;;;;;17.48;31.76;103017.28;4958636;28;1433;-53
2023/02/10 06:04:28;;;;;;;;;;;;;;;16.70;32.90;103025.59;4957060;28;1064;-56
2023/02/10 06:06:53;;;;;;;;;;;;;;;15.96;34.51;103018.72;4958306;29;1903;-56
2023/02/10 06:09:20;;;;;;;;;;;;;;;15.61;34.91;103014.28;4958083;29;1257;-53
2023/02/10 06:11:46;;;;;;;;;;;;;;;16.11;34.11;103012.97;4958016;28;1327;-56
2023/02/10 06:14:12;;;;;;;;;;;;;;;17.38;32.04;103018.63;4962545;28;1114;-53
2023/02/10 06:16:37;;;;;;;;;;;;;;;16.50;33.43;103022.13;4962863;28;1065;-52
2023/02/10 06:19:04;;;;;;;;;;;;;;;16.82;32.65;103012.00;4959435;28;1182;-50
2023/02/10 06:21:29;;;;;;;;;;;;;;;15.82;34.53;103021.50;4975954;28;2134;-51
2023/02/10 06:23:55;;;;;;;;;;;;;;;17.54;31.96;103022.69;4964124;28;1181;-52
2023/02/10 06:26:20;;;;;;;;;;;;;;;16.29;33.58;103020.53;4969189;28;1898;-52
2023/02/10 06:28:45;;;;;;;;;;;;;;;15.63;35.19;103016.84;4961457;28;1051;-51
2023/02/10 06:31:11;;;;;;;;;;;;;;;15.44;35.48;103013.88;4960118;28;1194;-50
2023/02/10 06:33:36;;;;;;;;;;;;;;;16.62;33.30;103027.75;4973858;28;1108;-54
2023/02/10 06:36:04;;;;;;;;;;;;;;;15.54;35.05;103036.25;4967107;28;1063;-47
2023/02/10 06:38:31;;;;;;;;;;;;;;;17.38;32.20;103037.03;4965355;28;912;-54
2023/02/10 06:40:56;;;;;;;;;;;;;;;16.32;33.57;103037.38;4948000;28;1363;-56
2023/02/10 06:43:22;;;;;;;;;;;;;;;16.33;34.00;103038.25;4968333;28;1037;-56
2023/02/10 06:45:47;;;;;;;;;;;;;;;17.36;31.97;103037.28;4971157;28;2054;-55
2023/02/10 06:48:13;;;;;;;;;;;;;;;16.11;34.32;103037.69;4978097;28;1005;-57
2023/02/10 06:50:39;;;;;;;;;;;;;;;17.77;31.55;103027.59;4969316;28;1790;-57
2023/02/10 06:53:05;;;;;;;;;;;;;;;16.90;32.88;103020.03;4957537;28;1468;-56
2023/02/10 06:55:30;;;;;;;;;;;;;;;16.02;34.50;103024.19;4958693;28;1105;-58
2023/02/10 06:57:59;;;;;;;;;;;;;;;17.22;32.57;103030.16;4969707;28;1101;-54
2023/02/10 07:00:24;;;;;;;;;;;;;;;16.15;34.04;103026.03;4960890;28;1193;-58
2023/02/10 07:02:49;;;;;;;;;;;;;;;17.60;31.87;103034.75;4957574;28;1059;-56
2023/02/10 07:05:15;;;;;;;;;;;;;;;17.47;31.71;103030.19;4974947;28;1973;-55
2023/02/10 07:07:40;;;;;;;;;;;;;;;16.37;33.95;103026.59;4976817;28;986;-55
2023/02/10 07:10:06;;;;;;;;;;;;;;;17.96;31.38;103030.38;4963990;28;1160;-57
2023/02/10 07:12:31;;;;;;;;;;;;;;;16.90;33.09;103031.03;4981263;28;1072;-54
2023/02/10 07:14:57;;;;;;;;;;;;;;;16.14;34.46;103038.06;4957589;28;1055;-59
2023/02/10 07:17:22;;;;;;;;;;;;;;;17.09;32.87;103036.59;4960481;28;1525;-56
2023/02/10 07:19:48;;;;;;;;;;;;;;;16.55;33.76;103042.38;4957812;29;1198;-53
2023/02/10 07:22:13;;;;;;;;;;;;;;;18.24;30.89;103037.28;4957227;29;1930;-52
2023/02/10 07:24:39;;;;;;;;;;;;;;;17.52;31.81;103024.03;4968630;28;1054;-58
2023/02/10 07:27:04;;;;;;;;;;;;;;;16.64;33.46;103034.72;4963893;28;1989;-52
2023/02/10 07:29:29;;;;;;;;;;;;;;;17.35;32.30;103030.06;4966583;28;1066;-58
2023/02/10 07:31:55;;;;;;;;;;;;;;;16.39;34.05;103023.63;4974817;28;1153;-50
2023/02/10 07:34:20;;;;;;;;;;;;;;;15.98;34.51;103033.06;4960127;28;994;-54
2023/02/10 07:36:53;;;;;;;;;;;;;;;17.42;32.06;103036.38;4962499;28;979;-51
2023/02/10 07:39:22;;;;;;;;;;;;;;;16.23;34.26;103033.22;4975200;28;962;-56
2023/02/10 07:41:47;;;;;;;;;;;;;;;16.36;34.21;103038.63;4964745;28;1038;-53
2023/02/10 07:44:13;;;;;;;;;;;;;;;16.82;33.01;103035.91;4973419;28;1064;-56
2023/02/10 07:46:38;;;;;;;;;;;;;;;16.69;33.67;103037.66;4956953;29;1895;-54
2023/02/10 07:49:03;;;;;;;;;;;;;;;18.26;30.91;103032.41;4972699;28;1002;-52
2023/02/10 07:51:29;;;;;;;;;;;;;;;16.79;33.22;103036.34;4969180;28;1971;-56
2023/02/10 07:53:54;;;;;;;;;;;;;;;16.17;34.48;103039.53;4956682;28;1324;-54
2023/02/10 07:56:20;;;;;;;;;;;;;;;17.40;32.38;103038.50;4967243;28;1061;-54
2023/02/10 07:58:45;;;;;;;;;;;;;;;16.07;34.84;103040.88;4976794;28;1069;-57
2023/02/10 08:01:11;;;;;;;;;;;;;;;17.89;31.42;103035.09;4965591;28;1193;-55
2023/02/10 08:03:36;;;;;;;;;;;;;;;17.41;32.32;103026.41;4962299;28;1153;-54
2023/02/10 08:06:01;;;;;;;;;;;;;;;16.26;34.13;103016.31;4964108;28;1956;-56
2023/02/10 08:08:27;;;;;;;;;;;;;;;17.51;32.53;103027.84;4956660;28;1075;-57
2023/02/10 08:10:52;;;;;;;;;;;;;;;16.40;33.88;103017.94;4969957;28;1098;-60
2023/02/10 08:13:18;;;;;;;;;;;;;;;15.97;34.82;103032.22;4967782;28;979;-60
2023/02/10 08:15:43;;;;;;;;;;;;;;;17.17;32.85;103030.00;4961266;28;1114;-48
2023/02/10 08:18:09;;;;;;;;;;;;;;;16.04;34.55;103019.31;4955459;29;1122;-57
2023/02/10 08:20:34;;;;;;;;;;;;;;;17.53;32.30;103031.19;4970256;28;1837;-52
2023/02/10 08:23:00;;;;;;;;;;;;;;;17.08;32.82;103041.28;4965046;28;1130;-57
2023/02/10 08:25:25;;;;;;;;;;;;;;;16.69;33.48;103034.91;4960779;28;1969;-50
2023/02/10 08:27:51;;;;;;;;;;;;;;;18.44;30.74;103026.88;4973712;28;905;-54
2023/02/10 08:30:16;;;;;;;;;;;;;;;16.79;33.32;103036.34;4969575;28;1507;-56
2023/02/10 08:32:42;;;;;;;;;;;;;;;16.83;33.54;103026.59;4959681;28;1158;-50
2023/02/10 08:35:07;;;;;;;;;;;;;;;17.36;32.30;103029.03;4967666;28;1014;-51
2023/02/10 08:37:33;;;;;;;;;;;;;;;16.36;34.03;103026.81;4968605;28;1069;-53
2023/02/10 08:39:58;;;;;;;;;;;;;;;17.12;33.01;103030.66;4979634;28;890;-53
2023/02/10 08:42:24;;;;;;;;;;;;;;;16.55;33.96;103028.66;4979562;28;1022;-58
2023/02/10 08:44:49;;;;;;;;;;;;;;;16.95;33.39;103035.03;4968603;28;1138;-56
2023/02/10 08:47:15;;;;;;;;;;;;;;;17.72;31.72;103024.66;4965759;28;1993;-58
2023/02/10 08:49:40;;;;;;;;;;;;;;;16.41;33.97;103027.00;4962841;28;986;-55
2023/02/10 08:52:06;;;;;;;;;;;;;;;16.06;34.56;103033.69;4957650;28;1920;-56
2023/02/10 08:54:31;;;;;;;;;;;;;;;16.97;32.80;103033.75;4973669;28;980;-57
2023/02/10 08:56:57;;;;;;;;;;;;;;;16.03;34.56;103041.47;4964116;28;1121;-59
2023/02/10 08:59:22;;;;;;;;;;;;;;;17.42;32.42;103032.78;4960460;29;1190;-54
2023/02/10 09:01:48;;;;;;;;;;;;;;;16.69;33.61;103032.19;4964360;28;1026;-57
2023/02/10 09:04:13;;;;;;;;;;;;;;;16.02;34.67;103031.56;4961281;28;975;-51
2023/02/10 09:06:40;;;;;;;;;;;;;;;17.56;31.93;103025.25;4958201;28;1912;-55
2023/02/10 09:09:06;;;;;;;;;;;;;;;16.25;34.18;103015.44;4959268;28;1174;-58
2023/02/10 09:11:32;;;;;;;;;;;;;;;17.16;32.91;103023.66;4961483;28;1256;-55
2023/02/10 09:13:57;;;;;;;;;;;;;;;17.24;32.38;103017.88;4959668;29;1236;-61
2023/02/10 09:16:22;;;;;;;;;;;;;;;16.29;34.30;103020.53;4959504;28;1394;-56
2023/02/10 09:18:48;;;;;;;;;;;;;;;16.75;33.58;103016.72;4964684;28;1216;-58
2023/02/10 09:21:13;;;;;;;;;;;;;;;16.38;33.87;103017.31;4960197;28;1940;-56
2023/02/10 09:23:39;;;;;;;;;;;;;;;16.76;33.80;103011.00;4968243;28;1026;-56
2023/02/10 09:26:04;;;;;;;;;;;;;;;17.99;31.37;103004.31;4966163;28;1993;-58
2023/02/10 09:28:30;;;;;;;;;;;;;;;16.51;34.03;103010.91;4978041;28;847;-57
2023/02/10 09:30:55;;;;;;;;;;;;;;;16.26;34.55;103005.31;4963532;28;1029;-55
2023/02/10 09:33:20;;;;;;;;;;;;;;;16.71;33.61;103008.06;4959335;28;1069;-54
2023/02/10 09:35:46;;;;;;;;;;;;;;;16.01;34.77;103014.25;4959451;28;1073;-58
2023/02/10 09:38:11;;;;;;;;;;;;;;;17.57;32.21;103007.66;4959956;28;1042;-58
2023/02/10 09:40:41;;;;;;;;;;;;;;;16.25;34.13;103009.94;4962873;28;913;-58
2023/02/10 09:43:18;;;;;;;;;;;;;;;17.93;31.75;103003.31;4942129;29;1425;-60
2023/02/10 09:45:43;;;;;;;;;;;;;;;17.35;32.16;103002.56;4942374;28;1981;-52
2023/02/10 09:48:15;;;;;;;;;;;;;;;16.38;34.25;103000.84;4959232;28;1095;-58
2023/02/10 09:50:56;;;;;;;;;;;;;;;16.10;34.67;102995.66;4960126;28;2444;-54
2023/02/10 09:53:23;;;;;;;;;;;;;;;16.49;34.00;102987.47;4967929;28;1121;-55
2023/02/10 09:55:49;;;;;;;;;;;;;;;15.97;35.07;102991.03;4959729;28;1039;-51
2023/02/10 09:58:18;;;;;;;;;;;;;;;17.75;31.81;102984.84;4959016;28;1100;-57
2023/02/10 10:00:44;;;;;;;;;;;;;;;16.30;34.45;102978.25;4959235;28;1129;-55
2023/02/10 10:03:17;;;;;;;;;;;;;;;17.73;32.07;102976.00;4963413;28;1029;-59
2023/02/10 10:05:47;;;;;;;;;;;;;;;17.10;32.86;102964.09;4993798;28;1979;-57
2023/02/10 10:08:19;;;;;;;;;;;;;;;16.17;34.40;102957.19;4965459;28;1181;-53
2023/02/10 10:10:44;;;;;;;;;;;;;;;17.31;32.46;102962.00;4978561;28;1048;-51
2023/02/10 10:13:13;;;;;;;;;;;;;;;16.25;34.23;102960.53;4971249;28;1071;-56
2023/02/10 10:15:40;;;;;;;;;;;;;;;18.06;31.27;102958.28;4941290;29;1569;-59
2023/02/10 10:18:11;;;;;;;;;;;;;;;17.29;32.51;102942.97;4972161;28;1437;-56
2023/02/10 10:20:43;;;;;;;;;;;;;;;16.41;34.02;102952.84;4939490;29;1202;-57
2023/02/10 10:23:12;;;;;;;;;;;;;;;17.44;32.20;102946.19;4940657;29;1252;-52
2023/02/10 10:25:57;;;;;;;;;;;;;;;16.28;34.43;102947.44;4956555;28;1915;-50
2023/02/10 10:28:23;;;;;;;;;;;;;;;16.93;33.33;102939.06;4937047;29;1339;-56
2023/02/10 10:30:51;;;;;;;;;;;;;;;16.66;33.47;102933.72;4957419;29;1174;-59
2023/02/10 10:33:27;;;;;;;;;;;;;;;16.08;34.94;102940.97;4958251;29;1288;-55
2023/02/10 10:35:52;;;;;;;;;;;;;;;17.44;32.14;102926.13;4941161;29;1265;-55
2023/02/10 10:38:19;;;;;;;;;;;;;;;16.28;34.20;102923.56;4957913;29;1285;-56
2023/02/10 10:40:45;;;;;;;;;;;;;;;17.74;32.06;102928.97;4957482;28;1413;-56
2023/02/10 10:43:16;;;;;;;;;;;;;;;16.97;33.01;102917.44;4957171;29;1363;-54
2023/02/10 10:45:46;;;;;;;;;;;;;;;16.23;34.26;102913.25;4956552;28;1967;-54
2023/02/10 10:48:11;;;;;;;;;;;;;;;15.95;34.85;102910.84;4952038;28;1376;-50
2023/02/10 10:50:37;;;;;;;;;;;;;;;16.41;34.21;102908.91;4957958;28;1333;-56
2023/02/10 10:53:11;;;;;;;;;;;;;;;16.31;34.04;102908.56;4957130;28;1272;-48
2023/02/10 10:55:38;;;;;;;;;;;;;;;17.10;33.02;102907.19;4970573;28;1213;-55
2023/02/10 10:58:07;;;;;;;;;;;;;;;17.82;31.37;102902.22;4956489;29;1328;-54
2023/02/10 11:00:33;;;;;;;;;;;;;;;16.30;34.33;102905.00;4947718;29;1195;-53
2023/02/10 11:02:59;;;;;;;;;;;;;;;16.78;33.75;102898.13;4961847;28;1218;-55
2023/02/10 11:05:28;;;;;;;;;;;;;;;16.64;33.69;102897.38;4967512;28;1910;-54
2023/02/10 11:07:54;;;;;;;;;;;;;;;17.18;32.96;102894.22;4960884;28;1229;-57
2023/02/10 11:10:42;;;;;;;;;;;;;;;18.18;30.81;102884.00;4979999;28;1288;-54
2023/02/10 11:13:16;;;;;;;;;;;;;;;16.55;33.74;102885.81;4956620;28;1997;-53
2023/02/10 11:15:42;;;;;;;;;;;;;;;16.04;34.60;102881.25;4948385;28;1162;-55
2023/02/10 11:18:17;;;;;;;;;;;;;;;16.76;33.30;102881.03;4970463;28;1204;-52
2023/02/10 11:20:51;;;;;;;;;;;;;;;15.94;35.03;102880.91;4969485;28;1221;-56
2023/02/10 11:23:17;;;;;;;;;;;;;;;18.06;31.49;102868.28;4947387;29;1222;-53
2023/02/10 11:25:45;;;;;;;;;;;;;;;16.48;33.79;102863.06;4962659;28;1919;-57
2023/02/10 11:28:17;;;;;;;;;;;;;;;15.94;34.84;102857.03;4955978;28;1287;-53
2023/02/10 11:30:44;;;;;;;;;;;;;;;16.98;33.27;102864.16;4957430;29;1415;-59
2023/02/10 11:33:20;;;;;;;;;;;;;;;16.05;34.53;102850.84;4940574;29;1385;-56
2023/02/10 11:35:49;;;;;;;;;;;;;;;17.76;31.93;102857.19;4954948;28;1213;-56
2023/02/10 11:38:21;;;;;;;;;;;;;;;16.76;33.59;102859.06;4991928;28;1108;-52
2023/02/10 11:40:54;;;;;;;;;;;;;;;16.05;34.62;102850.03;4958919;28;1223;-54
2023/02/10 11:43:20;;;;;;;;;;;;;;;17.05;32.93;102852.03;4992037;28;1093;-55
2023/02/10 11:45:53;;;;;;;;;;;;;;;16.09;34.86;102851.28;4973596;28;1906;-53
2023/02/10 11:48:19;;;;;;;;;;;;;;;18.07;31.48;102844.34;4960141;28;1285;-56
2023/02/10 11:50:44;;;;;;;;;;;;;;;16.92;33.30;102849.44;4967118;28;964;-53
2023/02/10 11:53:30;;;;;;;;;;;;;;;16.20;34.69;102852.44;4956547;28;1237;-56
2023/02/10 11:56:06;;;;;;;;;;;;;;;16.29;34.32;102848.41;4964031;28;1345;-54
2023/02/10 11:59:01;;;;;;;;;;;;;;;16.39;34.21;102847.91;4976154;28;1038;-56
2023/02/10 12:01:45;;;;;;;;;;;;;;;16.47;34.12;102846.81;4961285;29;1186;-55
2023/02/10 12:04:29;;;;;;;;;;;;;;;16.90;33.23;102829.56;4977916;28;1133;-56
2023/02/10 12:06:54;;;;;;;;;;;;;;;16.36;34.49;102829.97;4980230;28;1912;-54
2023/02/10 12:09:39;;;;;;;;;;;;;;;18.18;31.10;102827.00;4961086;29;1233;-53
2023/02/10 12:12:08;;;;;;;;;;;;;;;16.40;34.27;102825.72;4959953;29;1178;-57
2023/02/10 12:14:42;;;;;;;;;;;;;;;16.39;34.63;102826.78;4958451;28;1011;-54
2023/02/10 12:17:27;;;;;;;;;;;;;;;16.61;33.64;102826.41;4965945;28;1294;-56
2023/02/10 12:20:20;;;;;;;;;;;;;;;16.86;33.69;102823.66;4975008;28;1068;-55
2023/02/10 12:23:04;;;;;;;;;;;;;;;17.35;32.53;102814.72;4955432;29;1569;-57
2023/02/10 12:25:29;;;;;;;;;;;;;;;16.25;34.75;102814.22;4969241;28;1898;-58
2023/02/10 12:28:01;;;;;;;;;;;;;;;15.86;35.23;102816.97;4972703;28;1271;-54
2023/02/10 12:30:33;;;;;;;;;;;;;;;16.95;33.68;102829.72;4964375;28;1329;-56
2023/02/10 12:33:11;;;;;;;;;;;;;;;16.22;34.60;102820.97;4964494;28;1076;-55
2023/02/10 12:35:39;;;;;;;;;;;;;;;17.26;32.83;102819.69;4960547;29;1502;-53
2023/02/10 12:38:14;;;;;;;;;;;;;;;17.24;32.84;102819.91;4977015;28;1075;-56
2023/02/10 12:40:42;;;;;;;;;;;;;;;16.23;34.60;102813.59;4979583;28;1088;-50
2023/02/10 12:43:29;;;;;;;;;;;;;;;17.90;31.95;102827.59;4990530;28;1076;-54
2023/02/10 12:46:05;;;;;;;;;;;;;;;16.48;34.35;102826.50;4977414;28;1906;-54
2023/02/10 12:48:46;;;;;;;;;;;;;;;15.94;35.47;102821.38;4989981;28;1099;-56